| time (UTC) | temp C | wind direction | speed KPH | gust KPH | rain 1hr cm | rain 24hr cm | rain mn cm | humidity % | barometer mb |
| 20260508142723 | 14 | 259 | 22.5 | 32.2 | 0.00 | 0.00 | 0.00 | 64 | |
| 20260508141802 | 14 | 264 | 22.5 | 35.4 | 0.00 | 0.00 | 0.00 | 66 | |
| 20260508140903 | 15 | 265 | 20.9 | 35.4 | 0.00 | 0.00 | 0.00 | 67 | |
| 20260508140002 | 14 | 272 | 22.5 | 35.4 | 0.00 | 0.00 | 0.00 | 67 | |
| 20260508135403 | 14 | 266 | 20.9 | 30.6 | 0.00 | 0.00 | 0.00 | 68 | |
| 20260508134503 | 13 | 255 | 17.7 | 30.6 | 0.00 | 0.00 | 0.00 | 69 | |
| 20260508133602 | 14 | 267 | 11.3 | 25.7 | 0.00 | 0.00 | 0.00 | 70 | |
| 20260508132702 | 14 | 279 | 14.5 | 25.7 | 0.00 | 0.00 | 0.00 | 69 | |
| 20260508131823 | 14 | 279 | 14.5 | 30.6 | 0.00 | 0.00 | 0.00 | 69 | |
| 20260508130902 | 14 | 261 | 17.7 | 27.4 | 0.00 | 0.00 | 0.00 | 73 | |
| 20260508130003 | 14 | 273 | 16.1 | 27.4 | 0.00 | 0.00 | 0.00 | 71 | |
| 20260508125423 | 14 | 282 | 14.5 | 27.4 | 0.00 | 0.00 | 0.00 | 73 | |
| 20260508124523 | 14 | 277 | 14.5 | 27.4 | 0.00 | 0.00 | 0.00 | 73 | |
| 20260508123602 | 13 | 272 | 14.5 | 25.7 | 0.00 | 0.00 | 0.00 | 74 | |
| 20260508122723 | 13 | 274 | 14.5 | 27.4 | 0.00 | 0.00 | 0.00 | 72 | |
| 20260508121802 | 13 | 272 | 11.3 | 19.3 | 0.00 | 0.00 | 0.00 | 72 | |
| 20260508120902 | 13 | 286 | 12.9 | 20.9 | 0.00 | 0.00 | 0.00 | 70 | |
| 20260508120003 | 15 | 286 | 11.3 | 20.9 | 0.00 | 0.00 | 0.00 | 71 | |
| 20260508115402 | 13 | 253 | 11.3 | 20.9 | 0.00 | 0.00 | 0.00 | 65 | |
| 20260508114503 | 14 | 229 | 9.7 | 16.1 | 0.00 | 0.00 | 0.00 | 62 | |
| 20260508113624 | 13 | 247 | 8.0 | 12.9 | 0.00 | 0.00 | 0.00 | 66 | |
| 20260508112703 | 13 | 256 | 9.7 | 17.7 | 0.00 | 0.00 | 0.00 | 66 | |
| 20260508111803 | 13 | 271 | 11.3 | 20.9 | 0.00 | 0.00 | 0.00 | 70 | |
| 20260508110902 | 13 | 246 | 14.5 | 20.9 | 0.00 | 0.00 | 0.00 | 67 | |
| 20260508110024 | 13 | 229 | 11.3 | 22.5 | 0.00 | 0.00 | 0.00 | 63 | |
| 20260508105403 | 14 | 224 | 12.9 | 27.4 | 0.00 | 0.00 | 0.00 | 63 | |
| 20260508104524 | 14 | 226 | 12.9 | 25.7 | 0.00 | 0.00 | 0.00 | 64 | |
| 20260508103603 | 13 | 235 | 11.3 | 27.4 | 0.00 | 0.00 | 0.00 | 64 | |
| 20260508102724 | 13 | 253 | 11.3 | 19.3 | 0.00 | 0.00 | 0.00 | 65 | |
| 20260508101803 | 13 | 236 | 12.9 | 22.5 | 0.00 | 0.00 | 0.00 | 65 | |
| 20260508100923 | 13 | 219 | 9.7 | 19.3 | 0.00 | 0.00 | 0.00 | 64 | |
| 20260508100003 | 13 | 202 | 11.3 | 22.5 | 0.00 | 0.00 | 0.00 | 62 | |
| 20260508095403 | 13 | 199 | 9.7 | 22.5 | 0.00 | 0.00 | 0.00 | 63 | |
| 20260508094502 | 13 | 206 | 11.3 | 25.7 | 0.00 | 0.00 | 0.00 | 63 | |
| 20260508093603 | 12 | 223 | 9.7 | 22.5 | 0.00 | 0.00 | 0.00 | 66 | |
| 20260508092724 | 12 | 230 | 17.7 | 27.4 | 0.00 | 0.00 | 0.00 | 66 | |
| 20260508091802 | 12 | 210 | 16.1 | 29.0 | 0.00 | 0.00 | 0.00 | 66 | |
| 20260508090902 | 13 | 216 | 11.3 | 20.9 | 0.00 | 0.00 | 0.00 | 71 | |
| 20260508090004 | 12 | 214 | 14.5 | 30.6 | 0.00 | 0.00 | 0.00 | 70 | |
| 20260508085403 | 12 | 209 | 11.3 | 20.9 | 0.00 | 0.00 | 0.00 | 70 | |
| 20260508084502 | 12 | 206 | 9.7 | 19.3 | 0.00 | 0.00 | 0.00 | 70 | |
| 20260508083603 | 12 | 199 | 12.9 | 27.4 | 0.00 | 0.00 | 0.00 | 70 | |
| 20260508082703 | 12 | 193 | 12.9 | 25.7 | 0.00 | 0.00 | 0.00 | 71 | |
| 20260508081803 | 12 | 204 | 11.3 | 22.5 | 0.00 | 0.00 | 0.00 | 71 | |
| 20260508080903 | 11 | 201 | 11.3 | 25.7 | 0.00 | 0.00 | 0.00 | 73 | |
| 20260508080003 | 11 | 197 | 11.3 | 22.5 | 0.00 | 0.00 | 0.00 | 76 | |
| 20260508075403 | 11 | 193 | 11.3 | 22.5 | 0.00 | 0.00 | 0.00 | 76 | |
| 20260508074503 | 10 | 187 | 12.9 | 27.4 | 0.00 | 0.00 | 0.00 | 77 | |
| 20260508073603 | 10 | 179 | 11.3 | 27.4 | 0.00 | 0.00 | 0.00 | 78 | |
| 20260508072724 | 10 | 185 | 11.3 | 29.0 | 0.00 | 0.00 | 0.00 | 79 | |
| 20260508071803 | 10 | 180 | 11.3 | 22.5 | 0.00 | 0.00 | 0.00 | 80 | |
| 20260508070903 | 9 | 180 | 9.7 | 22.5 | 0.00 | 0.00 | 0.00 | 80 | |
| 20260508070003 | 9 | 185 | 12.9 | 30.6 | 0.00 | 0.00 | 0.00 | 80 | |
| 20260508065424 | 9 | 183 | 11.3 | 29.0 | 0.00 | 0.00 | 0.00 | 80 | |
| 20260508064524 | 9 | 180 | 12.9 | 29.0 | 0.00 | 0.00 | 0.00 | 79 | |
| 20260508063602 | 9 | 174 | 9.7 | 22.5 | 0.00 | 0.00 | 0.00 | 80 | |
| 20260508062703 | 9 | 169 | 9.7 | 20.9 | 0.00 | 0.00 | 0.00 | 80 | |
| 20260508061803 | 9 | 181 | 11.3 | 25.7 | 0.00 | 0.00 | 0.00 | 81 | |
| 20260508060903 | 9 | 169 | 9.7 | 20.9 | 0.00 | 0.00 | 0.00 | 81 | |
| 20260508060003 | 8 | 169 | 11.3 | 27.4 | 0.00 | 0.00 | 0.00 | 82 | |
| 20260508055403 | 8 | 168 | 11.3 | 27.4 | 0.00 | 0.00 | 0.00 | 82 | |
| 20260508054524 | 8 | 169 | 11.3 | 30.6 | 0.00 | 0.00 | 0.00 | 83 | |
| 20260508053603 | 8 | 167 | 9.7 | 22.5 | 0.00 | 0.00 | 0.00 | 83 | |
| 20260508052703 | 8 | 163 | 9.7 | 22.5 | 0.00 | 0.00 | 0.00 | 84 | |
| 20260508051803 | 8 | 164 | 9.7 | 22.5 | 0.00 | 0.00 | 0.00 | 84 | |
| 20260508050924 | 8 | 170 | 9.7 | 20.9 | 0.00 | 0.00 | 0.00 | 84 | |
| 20260508050003 | 8 | 176 | 11.3 | 25.7 | 0.00 | 0.00 | 0.00 | 84 | |
| 20260508045424 | 8 | 171 | 11.3 | 22.5 | 0.00 | 0.00 | 0.00 | 84 | |
| 20260508044503 | 8 | 170 | 9.7 | 20.9 | 0.00 | 0.00 | 0.00 | 84 | |
| 20260508043603 | 8 | 162 | 9.7 | 22.5 | 0.00 | 0.00 | 0.00 | 85 | |
| 20260508042724 | 7 | 161 | 9.7 | 22.5 | 0.00 | 0.00 | 0.00 | 86 | |
| 20260508041803 | 7 | 161 | 9.7 | 20.9 | 0.00 | 0.00 | 0.00 | 86 | |
| 20260508040903 | 7 | 155 | 8.0 | 20.9 | 0.00 | 0.00 | 0.00 | 86 | |
| 20260508040003 | 7 | 145 | 6.4 | 12.9 | 0.00 | 0.00 | 0.00 | 85 | |
| 20260508035403 | 7 | 141 | 8.0 | 12.9 | 0.00 | 0.00 | 0.00 | 85 | |
| 20260508034524 | 7 | 141 | 8.0 | 17.7 | 0.00 | 0.00 | 0.00 | 84 | |
| 20260508033624 | 7 | 142 | 6.4 | 11.3 | 0.00 | 0.00 | 0.00 | 84 | |
| 20260508032703 | 7 | 148 | 6.4 | 16.1 | 0.00 | 0.00 | 0.00 | 83 | |
| 20260508031824 | 7 | 148 | 6.4 | 11.3 | 0.00 | 0.00 | 0.00 | 82 | |
| 20260508030903 | 7 | 142 | 4.8 | 11.3 | 0.00 | 0.00 | 0.00 | 81 | |
| 20260508030003 | 8 | 150 | 6.4 | 12.9 | 0.00 | 0.00 | 0.00 | 81 | |
| 20260508025403 | 8 | 156 | 6.4 | 12.9 | 0.00 | 0.00 | 0.00 | 81 | |
| 20260508024503 | 8 | 157 | 6.4 | 12.9 | 0.00 | 0.00 | 0.00 | 81 | |
| 20260508023603 | 8 | 162 | 4.8 | 12.9 | 0.00 | 0.00 | 0.00 | 82 | |
| 20260508022703 | 8 | 161 | 6.4 | 12.9 | 0.00 | 0.00 | 0.00 | 82 | |
| 20260508021803 | 8 | 171 | 6.4 | 12.9 | 0.00 | 0.00 | 0.00 | 82 | |
| 20260508020903 | 8 | 168 | 6.4 | 12.9 | 0.00 | 0.00 | 0.00 | 82 | |
| 20260508020004 | 8 | 167 | 6.4 | 19.3 | 0.00 | 0.00 | 0.00 | 81 | |
| 20260508015403 | 8 | 165 | 6.4 | 17.7 | 0.00 | 0.00 | 0.00 | 81 | |
| 20260508014504 | 8 | 158 | 8.0 | 17.7 | 0.00 | 0.00 | 0.00 | 81 | |
| 20260508013603 | 8 | 164 | 8.0 | 19.3 | 0.00 | 0.00 | 0.00 | 81 | |
| 20260508012703 | 8 | 167 | 8.0 | 19.3 | 0.00 | 0.00 | 0.00 | 81 | |
| 20260508011803 | 9 | 171 | 6.4 | 12.9 | 0.00 | 0.00 | 0.00 | 80 | |
| 20260508010924 | 9 | 173 | 6.4 | 12.9 | 0.00 | 0.00 | 0.00 | 80 | |
| 20260508010003 | 9 | 175 | 6.4 | 19.3 | 0.00 | 0.00 | 0.00 | 80 | |
| 20260508005403 | 9 | 178 | 6.4 | 11.3 | 0.00 | 0.00 | 0.00 | 80 | |
| 20260508004503 | 9 | 166 | 6.4 | 19.3 | 0.00 | 0.00 | 0.00 | 80 | |
| 20260508003603 | 9 | 161 | 6.4 | 16.1 | 0.00 | 0.00 | 0.00 | 80 | |
| 20260508002724 | 9 | 165 | 4.8 | 12.9 | 0.00 | 0.00 | 0.00 | 80 | |
| 20260508001804 | 9 | 167 | 6.4 | 12.9 | 0.00 | 0.00 | 0.00 | 80 | |
| 20260508000903 | 9 | 167 | 6.4 | 16.1 | 0.00 | 0.00 | 0.00 | 80 | |
| 20260508000003 | 9 | 164 | 6.4 | 17.7 | 0.00 | 0.00 | 0.00 | 80 | |
| 20260507235404 | 9 | 162 | 8.0 | 17.7 | 0.00 | 0.00 | 0.00 | 79 | |
| 20260507234524 | 9 | 171 | 8.0 | 17.7 | 0.00 | 0.00 | 0.00 | 79 | |
| 20260507233602 | 9 | 175 | 8.0 | 19.3 | 0.00 | 0.00 | 0.00 | 78 | |
| 20260507232723 | 9 | 165 | 9.7 | 19.3 | 0.00 | 0.00 | 0.00 | 78 | |
| 20260507231802 | 9 | 169 | 8.0 | 12.9 | 0.00 | 0.00 | 0.00 | 78 | |
| 20260507230902 | 9 | 171 | 8.0 | 17.7 | 0.00 | 0.00 | 0.00 | 78 | |
| 20260507230003 | 9 | 167 | 6.4 | 19.3 | 0.00 | 0.00 | 0.00 | 78 | |
| 20260507225402 | 9 | 170 | 8.0 | 19.3 | 0.00 | 0.00 | 0.00 | 78 | |
| 20260507224502 | 9 | 193 | 8.0 | 16.1 | 0.00 | 0.00 | 0.00 | 77 | |
| 20260507223602 | 9 | 214 | 8.0 | 12.9 | 0.00 | 0.00 | 0.00 | 76 | |
| 20260507222702 | 10 | 202 | 6.4 | 11.3 | 0.00 | 0.00 | 0.00 | 75 | |
| 20260507221802 | 10 | 197 | 6.4 | 12.9 | 0.00 | 0.00 | 0.00 | 74 | |
| 20260507220902 | 10 | 185 | 6.4 | 12.9 | 0.00 | 0.00 | 0.00 | 74 | |
| 20260507220002 | 10 | 181 | 8.0 | 20.9 | 0.00 | 0.00 | 0.00 | 73 | |
| 20260507215402 | 10 | 166 | 6.4 | 12.9 | 0.00 | 0.00 | 0.00 | 73 | |
| 20260507214502 | 10 | 166 | 8.0 | 19.3 | 0.00 | 0.00 | 0.00 | 73 | |
| 20260507213602 | 10 | 154 | 8.0 | 20.9 | 0.00 | 0.00 | 0.00 | 74 | |
| 20260507212702 | 10 | 147 | 6.4 | 17.7 | 0.00 | 0.00 | 0.00 | 74 | |
| 20260507211802 | 10 | 156 | 6.4 | 12.9 | 0.00 | 0.00 | 0.00 | 74 | |
| 20260507210923 | 10 | 159 | 6.4 | 17.7 | 0.00 | 0.00 | 0.00 | 74 | |
| 20260507210002 | 10 | 160 | 8.0 | 22.5 | 0.00 | 0.00 | 0.00 | 74 | |
| 20260507205402 | 10 | 158 | 8.0 | 22.5 | 0.00 | 0.00 | 0.00 | 74 | |
| 20260507204502 | 10 | 155 | 8.0 | 19.3 | 0.00 | 0.00 | 0.00 | 74 | |
| 20260507203602 | 10 | 153 | 6.4 | 17.7 | 0.00 | 0.00 | 0.00 | 74 | |
| 20260507202702 | 10 | 153 | 6.4 | 17.7 | 0.00 | 0.00 | 0.00 | 74 | |
| 20260507201802 | 10 | 165 | 4.8 | 11.3 | 0.00 | 0.00 | 0.00 | 74 | |
| 20260507200902 | 10 | 167 | 4.8 | 9.7 | 0.00 | 0.00 | 0.00 | 74 | |
| 20260507200002 | 10 | 170 | 4.8 | 12.9 | 0.00 | 0.00 | 0.00 | 73 | |
| 20260507195402 | 10 | 181 | 6.4 | 12.9 | 0.00 | 0.00 | 0.00 | 73 | |
| 20260507194502 | 10 | 163 | 3.2 | 11.3 | 0.00 | 0.00 | 0.00 | 73 | |
| 20260507193602 | 10 | 154 | 3.2 | 11.3 | 0.00 | 0.00 | 0.00 | 72 | |
| 20260507192702 | 10 | 165 | 4.8 | 9.7 | 0.00 | 0.00 | 0.00 | 72 | |
| 20260507191802 | 11 | 159 | 4.8 | 9.7 | 0.00 | 0.00 | 0.00 | 71 | |
| 20260507190902 | 11 | 186 | 3.2 | 9.7 | 0.00 | 0.00 | 0.00 | 70 | |
| 20260507190003 | 11 | 196 | 4.8 | 11.3 | 0.00 | 0.00 | 0.00 | 70 | |
| 20260507185423 | 11 | 196 | 6.4 | 11.3 | 0.00 | 0.00 | 0.00 | 70 | |
| 20260507184502 | 11 | 195 | 9.7 | 17.7 | 0.00 | 0.00 | 0.00 | 69 | |
| 20260507183602 | 11 | 192 | 9.7 | 19.3 | 0.00 | 0.00 | 0.00 | 69 | |
| 20260507182702 | 11 | 186 | 9.7 | 25.7 | 0.00 | 0.00 | 0.00 | 68 | |
| 20260507181802 | 11 | 190 | 11.3 | 27.4 | 0.00 | 0.00 | 0.00 | 68 | |
| 20260507180902 | 11 | 178 | 11.3 | 25.7 | 0.00 | 0.00 | 0.00 | 67 | |
| 20260507180002 | 11 | 175 | 9.7 | 22.5 | 0.00 | 0.00 | 0.00 | 67 | |
| 20260507175402 | 12 | 180 | 9.7 | 22.5 | 0.00 | 0.00 | 0.00 | 66 | |
| 20260507174502 | 12 | 191 | 8.0 | 20.9 | 0.00 | 0.00 | 0.00 | 67 | |
| 20260507173603 | 12 | 183 | 9.7 | 27.4 | 0.00 | 0.00 | 0.00 | 65 | |
| 20260507172723 | 12 | 196 | 17.7 | 35.4 | 0.00 | 0.00 | 0.00 | 63 | |
| 20260507171802 | 12 | 193 | 20.9 | 41.8 | 0.00 | 0.00 | 0.00 | 62 | |
| 20260507170923 | 12 | 193 | 14.5 | 41.8 | 0.00 | 0.00 | 0.00 | 63 | |
| 20260507170002 | 12 | 190 | 16.1 | 29.0 | 0.00 | 0.00 | 0.00 | 63 | |
| 20260507165402 | 12 | 198 | 16.1 | 38.6 | 0.00 | 0.00 | 0.00 | 63 | |
| 20260507164502 | 12 | 196 | 12.9 | 30.6 | 0.00 | 0.00 | 0.00 | 65 | |
| 20260507163602 | 12 | 197 | 12.9 | 30.6 | 0.00 | 0.00 | 0.00 | 64 | |
| 20260507162702 | 12 | 200 | 16.1 | 37.0 | 0.00 | 0.00 | 0.00 | 63 | |
| 20260507161802 | 12 | 200 | 16.1 | 35.4 | 0.00 | 0.00 | 0.00 | 64 | |
| 20260507160902 | 12 | 194 | 14.5 | 32.2 | 0.00 | 0.00 | 0.00 | 63 | |
| 20260507160023 | 12 | 192 | 12.9 | 32.2 | 0.00 | 0.00 | 0.00 | 64 | |
| 20260507155402 | 12 | 196 | 11.3 | 20.9 | 0.00 | 0.00 | 0.00 | 65 | |
| 20260507154502 | 12 | 194 | 11.3 | 27.4 | 0.00 | 0.00 | 0.00 | 66 | |
| 20260507153603 | 12 | 197 | 12.9 | 27.4 | 0.00 | 0.00 | 0.00 | 66 | |
| 20260507152702 | 12 | 196 | 14.5 | 32.2 | 0.00 | 0.00 | 0.00 | 67 | |
| 20260507151802 | 12 | 199 | 11.3 | 22.5 | 0.00 | 0.00 | 0.00 | 68 | |
| 20260507150902 | 12 | 199 | 14.5 | 29.0 | 0.00 | 0.00 | 0.00 | 68 | |
| 20260507150002 | 12 | 209 | 14.5 | 27.4 | 0.00 | 0.00 | 0.00 | 67 | |
| 20260507145403 | 12 | 207 | 17.7 | 29.0 | 0.00 | 0.00 | 0.00 | 67 | |
| 20260507144502 | 12 | 203 | 11.3 | 22.5 | 0.00 | 0.00 | 0.00 | 67 | |
| 20260507143602 | 11 | 203 | 16.1 | 30.6 | 0.00 | 0.00 | 0.00 | 69 |